sensor_id;sensor_type;location;lat;lon;timestamp;temperature;humidity
10873;DHT22;34586;53.616;10.032;2023-06-10T00:01:41;14.60;99.90
10873;DHT22;34586;53.616;10.032;2023-06-10T00:04:08;14.60;99.90
10873;DHT22;34586;53.616;10.032;2023-06-10T00:06:34;14.60;99.90
10873;DHT22;34586;53.616;10.032;2023-06-10T00:09:05;14.50;99.90
10873;DHT22;34586;53.616;10.032;2023-06-10T00:11:34;14.60;99.90
10873;DHT22;34586;53.616;10.032;2023-06-10T00:14:00;14.50;99.90
10873;DHT22;34586;53.616;10.032;2023-06-10T00:16:26;14.50;99.90
10873;DHT22;34586;53.616;10.032;2023-06-10T00:18:52;14.40;99.90
10873;DHT22;34586;53.616;10.032;2023-06-10T00:21:18;14.40;99.90
10873;DHT22;34586;53.616;10.032;2023-06-10T00:23:44;14.40;99.90
10873;DHT22;34586;53.616;10.032;2023-06-10T00:26:10;14.30;99.90
10873;DHT22;34586;53.616;10.032;2023-06-10T00:28:35;14.30;99.90
10873;DHT22;34586;53.616;10.032;2023-06-10T00:31:01;14.30;99.90
10873;DHT22;34586;53.616;10.032;2023-06-10T00:33:27;14.30;99.90
10873;DHT22;34586;53.616;10.032;2023-06-10T00:35:53;14.20;99.90
10873;DHT22;34586;53.616;10.032;2023-06-10T00:38:19;14.30;99.90
10873;DHT22;34586;53.616;10.032;2023-06-10T00:40:44;14.20;99.90
10873;DHT22;34586;53.616;10.032;2023-06-10T00:43:10;14.10;99.90
10873;DHT22;34586;53.616;10.032;2023-06-10T00:45:36;14.10;99.90
10873;DHT22;34586;53.616;10.032;2023-06-10T00:48:02;14.10;99.90
10873;DHT22;34586;53.616;10.032;2023-06-10T00:50:28;14.00;99.90
10873;DHT22;34586;53.616;10.032;2023-06-10T00:52:54;14.00;99.90
10873;DHT22;34586;53.616;10.032;2023-06-10T00:55:20;14.10;99.90
10873;DHT22;34586;53.616;10.032;2023-06-10T00:57:46;14.10;99.90
10873;DHT22;34586;53.616;10.032;2023-06-10T01:00:14;14.10;99.90
10873;DHT22;34586;53.616;10.032;2023-06-10T01:02:41;14.00;99.90
10873;DHT22;34586;53.616;10.032;2023-06-10T01:05:07;14.00;99.90
10873;DHT22;34586;53.616;10.032;2023-06-10T01:10:11;13.90;99.90
10873;DHT22;34586;53.616;10.032;2023-06-10T01:12:54;13.90;99.90
10873;DHT22;34586;53.616;10.032;2023-06-10T01:15:21;13.90;99.90
10873;DHT22;34586;53.616;10.032;2023-06-10T01:18:01;13.80;99.90
10873;DHT22;34586;53.616;10.032;2023-06-10T01:20:29;13.90;99.90
10873;DHT22;34586;53.616;10.032;2023-06-10T01:22:55;13.80;99.90
10873;DHT22;34586;53.616;10.032;2023-06-10T01:25:23;13.70;99.90
10873;DHT22;34586;53.616;10.032;2023-06-10T01:28:07;13.70;99.90
10873;DHT22;34586;53.616;10.032;2023-06-10T01:33:07;13.60;99.90
10873;DHT22;34586;53.616;10.032;2023-06-10T01:35:37;13.60;99.90
10873;DHT22;34586;53.616;10.032;2023-06-10T01:38:03;13.50;99.90
10873;DHT22;34586;53.616;10.032;2023-06-10T01:40:30;13.50;99.90
10873;DHT22;34586;53.616;10.032;2023-06-10T01:42:56;13.50;99.90
10873;DHT22;34586;53.616;10.032;2023-06-10T01:45:22;13.50;99.90
10873;DHT22;34586;53.616;10.032;2023-06-10T01:47:47;13.50;99.90
10873;DHT22;34586;53.616;10.032;2023-06-10T01:50:13;13.50;99.90
10873;DHT22;34586;53.616;10.032;2023-06-10T01:52:38;13.50;99.90
10873;DHT22;34586;53.616;10.032;2023-06-10T01:55:04;13.50;99.90
10873;DHT22;34586;53.616;10.032;2023-06-10T01:57:30;13.40;99.90
10873;DHT22;34586;53.616;10.032;2023-06-10T01:59:56;13.40;99.90
10873;DHT22;34586;53.616;10.032;2023-06-10T02:02:21;13.30;99.90
10873;DHT22;34586;53.616;10.032;2023-06-10T02:04:47;13.30;99.90
10873;DHT22;34586;53.616;10.032;2023-06-10T02:07:13;13.30;99.90
10873;DHT22;34586;53.616;10.032;2023-06-10T02:09:39;13.30;99.90
10873;DHT22;34586;53.616;10.032;2023-06-10T02:12:05;13.30;99.90
10873;DHT22;34586;53.616;10.032;2023-06-10T02:14:32;13.30;99.90
10873;DHT22;34586;53.616;10.032;2023-06-10T02:16:58;13.30;99.90
10873;DHT22;34586;53.616;10.032;2023-06-10T02:19:23;13.30;99.90
10873;DHT22;34586;53.616;10.032;2023-06-10T02:21:52;13.30;99.90
10873;DHT22;34586;53.616;10.032;2023-06-10T02:24:18;13.20;99.90
10873;DHT22;34586;53.616;10.032;2023-06-10T02:26:43;13.20;99.90
10873;DHT22;34586;53.616;10.032;2023-06-10T02:29:09;13.10;99.90
10873;DHT22;34586;53.616;10.032;2023-06-10T02:31:35;13.20;99.90
10873;DHT22;34586;53.616;10.032;2023-06-10T02:34:01;13.20;99.90
10873;DHT22;34586;53.616;10.032;2023-06-10T02:36:28;13.20;99.90
10873;DHT22;34586;53.616;10.032;2023-06-10T02:38:54;13.20;99.90
10873;DHT22;34586;53.616;10.032;2023-06-10T02:41:19;13.20;99.90
10873;DHT22;34586;53.616;10.032;2023-06-10T02:43:47;13.20;99.90
10873;DHT22;34586;53.616;10.032;2023-06-10T02:46:12;13.20;99.90
10873;DHT22;34586;53.616;10.032;2023-06-10T02:48:45;13.20;99.90
10873;DHT22;34586;53.616;10.032;2023-06-10T02:51:11;13.20;99.90
10873;DHT22;34586;53.616;10.032;2023-06-10T02:53:37;13.20;99.90
10873;DHT22;34586;53.616;10.032;2023-06-10T02:56:03;13.10;99.90
10873;DHT22;34586;53.616;10.032;2023-06-10T02:58:28;13.20;99.90
10873;DHT22;34586;53.616;10.032;2023-06-10T03:00:54;13.20;99.90
10873;DHT22;34586;53.616;10.032;2023-06-10T03:03:20;13.20;99.90
10873;DHT22;34586;53.616;10.032;2023-06-10T03:05:48;13.20;99.90
10873;DHT22;34586;53.616;10.032;2023-06-10T03:08:13;13.20;99.90
10873;DHT22;34586;53.616;10.032;2023-06-10T03:10:39;13.20;99.90
10873;DHT22;34586;53.616;10.032;2023-06-10T03:13:05;13.20;99.90
10873;DHT22;34586;53.616;10.032;2023-06-10T03:15:30;13.10;99.90
10873;DHT22;34586;53.616;10.032;2023-06-10T03:18:01;13.10;99.90
10873;DHT22;34586;53.616;10.032;2023-06-10T03:20:27;13.10;99.90
10873;DHT22;34586;53.616;10.032;2023-06-10T03:22:54;13.10;99.90
10873;DHT22;34586;53.616;10.032;2023-06-10T03:25:19;13.10;99.90
10873;DHT22;34586;53.616;10.032;2023-06-10T03:27:46;13.10;99.90
10873;DHT22;34586;53.616;10.032;2023-06-10T03:30:13;13.10;99.90
10873;DHT22;34586;53.616;10.032;2023-06-10T03:32:39;13.10;99.90
10873;DHT22;34586;53.616;10.032;2023-06-10T03:35:06;13.10;99.90
10873;DHT22;34586;53.616;10.032;2023-06-10T03:37:32;13.10;99.90
10873;DHT22;34586;53.616;10.032;2023-06-10T03:39:58;13.10;99.90
10873;DHT22;34586;53.616;10.032;2023-06-10T03:42:23;13.10;99.90
10873;DHT22;34586;53.616;10.032;2023-06-10T03:44:49;13.10;99.90
10873;DHT22;34586;53.616;10.032;2023-06-10T03:47:15;13.10;99.90
10873;DHT22;34586;53.616;10.032;2023-06-10T03:49:41;13.20;99.90
10873;DHT22;34586;53.616;10.032;2023-06-10T03:52:07;13.10;99.90
10873;DHT22;34586;53.616;10.032;2023-06-10T03:54:32;13.20;99.90
10873;DHT22;34586;53.616;10.032;2023-06-10T03:57:00;13.20;99.90
10873;DHT22;34586;53.616;10.032;2023-06-10T03:59:26;13.20;99.90
10873;DHT22;34586;53.616;10.032;2023-06-10T04:01:51;13.20;99.90
10873;DHT22;34586;53.616;10.032;2023-06-10T04:04:17;13.20;99.90
10873;DHT22;34586;53.616;10.032;2023-06-10T04:06:43;13.30;99.90
10873;DHT22;34586;53.616;10.032;2023-06-10T04:09:10;13.30;99.90
10873;DHT22;34586;53.616;10.032;2023-06-10T04:11:36;13.30;99.90
10873;DHT22;34586;53.616;10.032;2023-06-10T04:14:02;14.10;99.90
10873;DHT22;34586;53.616;10.032;2023-06-10T04:16:28;13.40;99.90
10873;DHT22;34586;53.616;10.032;2023-06-10T04:18:53;13.40;99.90
10873;DHT22;34586;53.616;10.032;2023-06-10T04:21:19;13.50;99.90
10873;DHT22;34586;53.616;10.032;2023-06-10T04:23:45;13.50;99.90
10873;DHT22;34586;53.616;10.032;2023-06-10T04:26:10;13.50;99.90
10873;DHT22;34586;53.616;10.032;2023-06-10T04:28:37;13.60;99.90
10873;DHT22;34586;53.616;10.032;2023-06-10T04:31:03;13.60;99.90
10873;DHT22;34586;53.616;10.032;2023-06-10T04:33:30;13.60;99.90
10873;DHT22;34586;53.616;10.032;2023-06-10T04:35:55;13.70;99.90
10873;DHT22;34586;53.616;10.032;2023-06-10T04:38:21;13.70;99.90
10873;DHT22;34586;53.616;10.032;2023-06-10T04:40:47;13.80;99.90
10873;DHT22;34586;53.616;10.032;2023-06-10T04:43:13;13.90;99.90
10873;DHT22;34586;53.616;10.032;2023-06-10T04:45:38;14.00;99.90
10873;DHT22;34586;53.616;10.032;2023-06-10T04:48:05;14.00;99.90
10873;DHT22;34586;53.616;10.032;2023-06-10T04:50:30;14.00;99.90
10873;DHT22;34586;53.616;10.032;2023-06-10T04:52:58;14.10;99.90
10873;DHT22;34586;53.616;10.032;2023-06-10T04:55:24;14.10;99.90
10873;DHT22;34586;53.616;10.032;2023-06-10T04:57:50;14.20;99.90
10873;DHT22;34586;53.616;10.032;2023-06-10T05:00:16;14.30;99.90
10873;DHT22;34586;53.616;10.032;2023-06-10T05:02:42;14.40;99.90
10873;DHT22;34586;53.616;10.032;2023-06-10T05:05:08;14.40;99.90
10873;DHT22;34586;53.616;10.032;2023-06-10T05:07:34;14.50;99.90
10873;DHT22;34586;53.616;10.032;2023-06-10T05:09:59;14.50;99.90
10873;DHT22;34586;53.616;10.032;2023-06-10T05:12:26;14.60;99.90
10873;DHT22;34586;53.616;10.032;2023-06-10T05:14:51;14.60;99.90
10873;DHT22;34586;53.616;10.032;2023-06-10T05:17:17;14.70;99.90
10873;DHT22;34586;53.616;10.032;2023-06-10T05:19:43;14.70;99.90
10873;DHT22;34586;53.616;10.032;2023-06-10T05:22:08;14.80;99.90
10873;DHT22;34586;53.616;10.032;2023-06-10T05:24:34;14.90;99.90
10873;DHT22;34586;53.616;10.032;2023-06-10T05:27:00;14.90;99.90
10873;DHT22;34586;53.616;10.032;2023-06-10T05:29:25;15.00;99.90
10873;DHT22;34586;53.616;10.032;2023-06-10T05:31:51;15.20;99.90
10873;DHT22;34586;53.616;10.032;2023-06-10T05:34:17;15.20;99.90
10873;DHT22;34586;53.616;10.032;2023-06-10T05:36:43;15.20;99.90
10873;DHT22;34586;53.616;10.032;2023-06-10T05:39:09;15.20;99.90
10873;DHT22;34586;53.616;10.032;2023-06-10T05:41:35;15.30;99.90
10873;DHT22;34586;53.616;10.032;2023-06-10T05:44:01;15.40;99.90
10873;DHT22;34586;53.616;10.032;2023-06-10T05:46:26;15.50;99.90
10873;DHT22;34586;53.616;10.032;2023-06-10T05:48:52;15.50;99.90
10873;DHT22;34586;53.616;10.032;2023-06-10T05:51:17;15.60;99.90
10873;DHT22;34586;53.616;10.032;2023-06-10T05:53:43;15.70;99.90
10873;DHT22;34586;53.616;10.032;2023-06-10T05:56:09;15.60;99.90
10873;DHT22;34586;53.616;10.032;2023-06-10T05:58:34;15.90;99.90
10873;DHT22;34586;53.616;10.032;2023-06-10T06:01:00;15.90;99.90
10873;DHT22;34586;53.616;10.032;2023-06-10T06:03:25;15.90;99.90
10873;DHT22;34586;53.616;10.032;2023-06-10T06:05:52;16.00;99.90
10873;DHT22;34586;53.616;10.032;2023-06-10T06:08:18;16.10;99.90
10873;DHT22;34586;53.616;10.032;2023-06-10T06:10:45;16.20;99.90
10873;DHT22;34586;53.616;10.032;2023-06-10T06:13:11;16.30;99.90
10873;DHT22;34586;53.616;10.032;2023-06-10T06:15:36;16.20;99.90
10873;DHT22;34586;53.616;10.032;2023-06-10T06:18:02;16.30;99.90
10873;DHT22;34586;53.616;10.032;2023-06-10T06:20:27;16.30;99.90
10873;DHT22;34586;53.616;10.032;2023-06-10T06:22:53;16.30;99.90
10873;DHT22;34586;53.616;10.032;2023-06-10T06:25:19;16.40;99.90
10873;DHT22;34586;53.616;10.032;2023-06-10T06:27:45;16.50;99.90
10873;DHT22;34586;53.616;10.032;2023-06-10T06:30:10;16.70;99.90
10873;DHT22;34586;53.616;10.032;2023-06-10T06:32:37;16.60;99.90
10873;DHT22;34586;53.616;10.032;2023-06-10T06:35:03;16.60;99.90
10873;DHT22;34586;53.616;10.032;2023-06-10T06:37:31;16.70;99.90
10873;DHT22;34586;53.616;10.032;2023-06-10T06:39:57;16.70;99.90
10873;DHT22;34586;53.616;10.032;2023-06-10T06:42:23;16.80;99.90
10873;DHT22;34586;53.616;10.032;2023-06-10T06:44:48;16.90;94.60
10873;DHT22;34586;53.616;10.032;2023-06-10T06:47:14;17.00;83.10
10873;DHT22;34586;53.616;10.032;2023-06-10T06:49:41;17.10;91.60
10873;DHT22;34586;53.616;10.032;2023-06-10T06:52:07;17.10;65.40
10873;DHT22;34586;53.616;10.032;2023-06-10T06:54:32;17.20;60.80
10873;DHT22;34586;53.616;10.032;2023-06-10T06:56:58;17.30;34.90
10873;DHT22;34586;53.616;10.032;2023-06-10T06:59:23;17.30;45.70
10873;DHT22;34586;53.616;10.032;2023-06-10T07:01:51;17.30;54.40
10873;DHT22;34586;53.616;10.032;2023-06-10T07:04:16;17.30;62.70
10873;DHT22;34586;53.616;10.032;2023-06-10T07:06:42;17.40;23.90
10873;DHT22;34586;53.616;10.032;2023-06-10T07:09:08;17.40;1.70
10873;DHT22;34586;53.616;10.032;2023-06-10T07:11:36;17.40;19.50
10873;DHT22;34586;53.616;10.032;2023-06-10T07:14:02;17.40;58.80
10873;DHT22;34586;53.616;10.032;2023-06-10T07:16:28;17.50;7.80
10873;DHT22;34586;53.616;10.032;2023-06-10T07:18:53;17.60;18.20
10873;DHT22;34586;53.616;10.032;2023-06-10T07:21:19;17.60;25.50
10873;DHT22;34586;53.616;10.032;2023-06-10T07:23:45;17.70;37.20
10873;DHT22;34586;53.616;10.032;2023-06-10T07:26:11;17.80;18.70
10873;DHT22;34586;53.616;10.032;2023-06-10T07:28:39;17.80;1.00
10873;DHT22;34586;53.616;10.032;2023-06-10T07:31:05;17.90;1.00
10873;DHT22;34586;53.616;10.032;2023-06-10T07:33:31;17.90;1.00
10873;DHT22;34586;53.616;10.032;2023-06-10T07:35:56;17.90;1.00
10873;DHT22;34586;53.616;10.032;2023-06-10T07:38:22;17.90;1.00
10873;DHT22;34586;53.616;10.032;2023-06-10T07:40:48;18.10;1.00
10873;DHT22;34586;53.616;10.032;2023-06-10T07:43:13;18.20;1.00
10873;DHT22;34586;53.616;10.032;2023-06-10T07:45:42;18.20;1.00
10873;DHT22;34586;53.616;10.032;2023-06-10T07:48:11;18.30;1.00
10873;DHT22;34586;53.616;10.032;2023-06-10T07:50:36;18.40;1.00
10873;DHT22;34586;53.616;10.032;2023-06-10T07:53:02;18.50;1.00
10873;DHT22;34586;53.616;10.032;2023-06-10T07:55:28;18.50;1.00
10873;DHT22;34586;53.616;10.032;2023-06-10T07:57:54;18.50;1.00
10873;DHT22;34586;53.616;10.032;2023-06-10T08:00:20;18.50;1.00
10873;DHT22;34586;53.616;10.032;2023-06-10T08:02:46;18.50;1.00
10873;DHT22;34586;53.616;10.032;2023-06-10T08:05:12;18.50;1.00
10873;DHT22;34586;53.616;10.032;2023-06-10T08:07:39;18.70;1.00
10873;DHT22;34586;53.616;10.032;2023-06-10T08:10:05;18.70;1.00
10873;DHT22;34586;53.616;10.032;2023-06-10T08:12:32;18.80;1.00
10873;DHT22;34586;53.616;10.032;2023-06-10T08:14:57;18.90;1.00
10873;DHT22;34586;53.616;10.032;2023-06-10T08:17:23;19.00;1.00
10873;DHT22;34586;53.616;10.032;2023-06-10T08:19:49;19.10;1.00
10873;DHT22;34586;53.616;10.032;2023-06-10T08:22:15;19.10;1.00
10873;DHT22;34586;53.616;10.032;2023-06-10T08:24:40;19.20;1.00
10873;DHT22;34586;53.616;10.032;2023-06-10T08:27:06;19.20;1.00
10873;DHT22;34586;53.616;10.032;2023-06-10T08:29:32;19.30;1.00
10873;DHT22;34586;53.616;10.032;2023-06-10T08:31:59;19.50;1.00
10873;DHT22;34586;53.616;10.032;2023-06-10T08:34:24;19.60;1.00
10873;DHT22;34586;53.616;10.032;2023-06-10T08:36:50;19.70;1.00
10873;DHT22;34586;53.616;10.032;2023-06-10T08:39:19;19.80;1.00
10873;DHT22;34586;53.616;10.032;2023-06-10T08:42:32;19.80;1.00
10873;DHT22;34586;53.616;10.032;2023-06-10T08:44:36;19.90;1.00
10873;DHT22;34586;53.616;10.032;2023-06-10T08:47:14;19.90;1.00
10873;DHT22;34586;53.616;10.032;2023-06-10T08:49:43;19.90;1.00
10873;DHT22;34586;53.616;10.032;2023-06-10T08:52:18;20.00;1.00
10873;DHT22;34586;53.616;10.032;2023-06-10T08:55:09;20.00;99.90
10873;DHT22;34586;53.616;10.032;2023-06-10T08:57:36;20.00;1.00
10873;DHT22;34586;53.616;10.032;2023-06-10T09:00:02;20.00;1.00
10873;DHT22;34586;53.616;10.032;2023-06-10T09:02:28;20.10;1.00
10873;DHT22;34586;53.616;10.032;2023-06-10T09:04:56;20.20;1.00
10873;DHT22;34586;53.616;10.032;2023-06-10T09:07:23;20.30;1.00
10873;DHT22;34586;53.616;10.032;2023-06-10T09:09:49;20.40;1.00
10873;DHT22;34586;53.616;10.032;2023-06-10T09:12:15;20.40;1.00
10873;DHT22;34586;53.616;10.032;2023-06-10T09:14:42;20.50;99.90
10873;DHT22;34586;53.616;10.032;2023-06-10T09:17:07;20.50;1.00
10873;DHT22;34586;53.616;10.032;2023-06-10T09:19:33;20.60;1.00
10873;DHT22;34586;53.616;10.032;2023-06-10T09:22:00;20.70;1.00
10873;DHT22;34586;53.616;10.032;2023-06-10T09:24:26;20.80;99.90
10873;DHT22;34586;53.616;10.032;2023-06-10T09:27:05;20.90;1.00
10873;DHT22;34586;53.616;10.032;2023-06-10T09:29:53;20.90;99.90
10873;DHT22;34586;53.616;10.032;2023-06-10T09:32:18;20.90;99.90
10873;DHT22;34586;53.616;10.032;2023-06-10T09:34:44;20.90;99.90
10873;DHT22;34586;53.616;10.032;2023-06-10T09:37:10;20.90;99.90
10873;DHT22;34586;53.616;10.032;2023-06-10T09:39:37;21.10;1.00
10873;DHT22;34586;53.616;10.032;2023-06-10T09:42:16;21.20;99.90
10873;DHT22;34586;53.616;10.032;2023-06-10T09:44:42;21.10;99.90
10873;DHT22;34586;53.616;10.032;2023-06-10T09:47:07;21.30;99.90
10873;DHT22;34586;53.616;10.032;2023-06-10T09:49:33;21.50;99.90
10873;DHT22;34586;53.616;10.032;2023-06-10T09:52:05;21.50;99.90
10873;DHT22;34586;53.616;10.032;2023-06-10T09:54:32;21.50;99.90
10873;DHT22;34586;53.616;10.032;2023-06-10T09:56:57;21.50;99.90
10873;DHT22;34586;53.616;10.032;2023-06-10T09:59:29;21.60;99.90
10873;DHT22;34586;53.616;10.032;2023-06-10T10:01:57;21.50;99.90
10873;DHT22;34586;53.616;10.032;2023-06-10T10:04:24;21.50;99.90
10873;DHT22;34586;53.616;10.032;2023-06-10T10:06:50;21.60;99.90
10873;DHT22;34586;53.616;10.032;2023-06-10T10:09:16;21.70;99.90
10873;DHT22;34586;53.616;10.032;2023-06-10T10:11:43;21.90;99.90
10873;DHT22;34586;53.616;10.032;2023-06-10T10:14:09;22.00;99.90
10873;DHT22;34586;53.616;10.032;2023-06-10T10:16:41;22.10;99.90
10873;DHT22;34586;53.616;10.032;2023-06-10T10:19:23;22.20;99.90
10873;DHT22;34586;53.616;10.032;2023-06-10T10:21:54;22.20;99.90
10873;DHT22;34586;53.616;10.032;2023-06-10T10:24:30;22.30;99.90
10873;DHT22;34586;53.616;10.032;2023-06-10T10:26:59;22.40;99.90
10873;DHT22;34586;53.616;10.032;2023-06-10T10:29:33;22.50;99.90
10873;DHT22;34586;53.616;10.032;2023-06-10T10:32:02;22.60;99.90
10873;DHT22;34586;53.616;10.032;2023-06-10T10:35:03;22.70;80.40
10873;DHT22;34586;53.616;10.032;2023-06-10T10:37:31;22.60;23.40
10873;DHT22;34586;53.616;10.032;2023-06-10T10:39:58;22.70;99.90
10873;DHT22;34586;53.616;10.032;2023-06-10T10:42:24;22.80;99.90
10873;DHT22;34586;53.616;10.032;2023-06-10T10:44:50;22.80;85.00
10873;DHT22;34586;53.616;10.032;2023-06-10T10:47:17;23.00;99.90
10873;DHT22;34586;53.616;10.032;2023-06-10T10:49:45;23.20;99.90
10873;DHT22;34586;53.616;10.032;2023-06-10T10:52:14;23.30;99.90
10873;DHT22;34586;53.616;10.032;2023-06-10T10:54:44;23.40;99.90
10873;DHT22;34586;53.616;10.032;2023-06-10T10:57:16;23.40;1.00
10873;DHT22;34586;53.616;10.032;2023-06-10T10:59:55;23.50;1.00
10873;DHT22;34586;53.616;10.032;2023-06-10T11:02:41;23.50;1.00
10873;DHT22;34586;53.616;10.032;2023-06-10T11:05:18;23.60;1.00
10873;DHT22;34586;53.616;10.032;2023-06-10T11:07:55;23.80;1.00
10873;DHT22;34586;53.616;10.032;2023-06-10T11:10:30;23.50;1.00
10873;DHT22;34586;53.616;10.032;2023-06-10T11:12:57;23.80;1.00
10873;DHT22;34586;53.616;10.032;2023-06-10T11:15:24;23.90;1.00
10873;DHT22;34586;53.616;10.032;2023-06-10T11:18:09;24.00;1.00
10873;DHT22;34586;53.616;10.032;2023-06-10T11:34:01;24.60;1.00
10873;DHT22;34586;53.616;10.032;2023-06-10T11:36:28;24.60;1.00
10873;DHT22;34586;53.616;10.032;2023-06-10T11:39:04;24.70;1.00
10873;DHT22;34586;53.616;10.032;2023-06-10T11:41:31;24.90;1.00
10873;DHT22;34586;53.616;10.032;2023-06-10T11:44:02;25.10;1.00
10873;DHT22;34586;53.616;10.032;2023-06-10T11:46:28;25.20;1.00
10873;DHT22;34586;53.616;10.032;2023-06-10T11:48:59;25.40;1.00
10873;DHT22;34586;53.616;10.032;2023-06-10T11:51:26;25.40;1.00
10873;DHT22;34586;53.616;10.032;2023-06-10T11:53:53;25.70;1.00
10873;DHT22;34586;53.616;10.032;2023-06-10T11:56:20;25.60;99.90
10873;DHT22;34586;53.616;10.032;2023-06-10T11:58:56;25.70;1.00
10873;DHT22;34586;53.616;10.032;2023-06-10T12:01:24;25.90;1.00
10873;DHT22;34586;53.616;10.032;2023-06-10T12:04:19;26.10;99.90
10873;DHT22;34586;53.616;10.032;2023-06-10T12:06:49;26.20;1.00
10873;DHT22;34586;53.616;10.032;2023-06-10T12:11:55;26.50;99.90
10873;DHT22;34586;53.616;10.032;2023-06-10T12:14:58;26.70;99.90
10873;DHT22;34586;53.616;10.032;2023-06-10T12:17:43;26.80;99.90
10873;DHT22;34586;53.616;10.032;2023-06-10T12:20:24;27.10;99.90
10873;DHT22;34586;53.616;10.032;2023-06-10T12:22:49;27.20;99.90
10873;DHT22;34586;53.616;10.032;2023-06-10T12:25:15;27.50;99.90
10873;DHT22;34586;53.616;10.032;2023-06-10T12:27:50;28.40;99.90
10873;DHT22;34586;53.616;10.032;2023-06-10T12:30:19;29.60;99.90
10873;DHT22;34586;53.616;10.032;2023-06-10T12:32:46;30.80;99.90
10873;DHT22;34586;53.616;10.032;2023-06-10T12:35:17;31.50;99.90
10873;DHT22;34586;53.616;10.032;2023-06-10T12:37:54;32.20;99.90
10873;DHT22;34586;53.616;10.032;2023-06-10T12:40:26;32.70;99.90
10873;DHT22;34586;53.616;10.032;2023-06-10T12:42:54;32.90;99.90
10873;DHT22;34586;53.616;10.032;2023-06-10T12:45:32;32.40;99.90
10873;DHT22;34586;53.616;10.032;2023-06-10T12:48:06;32.90;99.90
10873;DHT22;34586;53.616;10.032;2023-06-10T12:50:40;32.90;99.90
10873;DHT22;34586;53.616;10.032;2023-06-10T12:53:06;33.10;99.90
10873;DHT22;34586;53.616;10.032;2023-06-10T12:55:32;33.70;99.90
10873;DHT22;34586;53.616;10.032;2023-06-10T12:57:59;33.70;99.90
10873;DHT22;34586;53.616;10.032;2023-06-10T13:00:25;33.80;99.90
10873;DHT22;34586;53.616;10.032;2023-06-10T13:02:54;34.10;99.90
10873;DHT22;34586;53.616;10.032;2023-06-10T13:05:20;34.00;99.90
10873;DHT22;34586;53.616;10.032;2023-06-10T13:07:46;34.10;99.90
10873;DHT22;34586;53.616;10.032;2023-06-10T13:10:13;34.10;99.90
10873;DHT22;34586;53.616;10.032;2023-06-10T13:12:39;33.50;99.90
10873;DHT22;34586;53.616;10.032;2023-06-10T13:15:05;33.20;99.90
10873;DHT22;34586;53.616;10.032;2023-06-10T13:17:31;33.20;99.90
10873;DHT22;34586;53.616;10.032;2023-06-10T13:19:56;33.30;99.90
10873;DHT22;34586;53.616;10.032;2023-06-10T13:22:22;33.60;99.90
10873;DHT22;34586;53.616;10.032;2023-06-10T13:24:49;33.60;99.90
10873;DHT22;34586;53.616;10.032;2023-06-10T13:27:15;33.30;99.90
10873;DHT22;34586;53.616;10.032;2023-06-10T13:29:40;33.60;99.90
10873;DHT22;34586;53.616;10.032;2023-06-10T13:32:06;34.20;99.90
10873;DHT22;34586;53.616;10.032;2023-06-10T13:34:33;34.40;99.90
10873;DHT22;34586;53.616;10.032;2023-06-10T13:36:58;34.60;99.90
10873;DHT22;34586;53.616;10.032;2023-06-10T13:39:24;34.60;99.90
10873;DHT22;34586;53.616;10.032;2023-06-10T13:41:50;34.50;99.90
10873;DHT22;34586;53.616;10.032;2023-06-10T13:44:17;33.90;99.90
10873;DHT22;34586;53.616;10.032;2023-06-10T13:46:42;33.90;99.90
10873;DHT22;34586;53.616;10.032;2023-06-10T13:49:08;33.90;99.90
10873;DHT22;34586;53.616;10.032;2023-06-10T13:51:34;33.70;99.90
10873;DHT22;34586;53.616;10.032;2023-06-10T13:53:59;33.20;99.90
10873;DHT22;34586;53.616;10.032;2023-06-10T13:56:25;33.00;99.90
10873;DHT22;34586;53.616;10.032;2023-06-10T13:58:51;33.00;99.90
10873;DHT22;34586;53.616;10.032;2023-06-10T14:01:16;33.10;99.90
10873;DHT22;34586;53.616;10.032;2023-06-10T14:03:42;33.00;99.90
10873;DHT22;34586;53.616;10.032;2023-06-10T14:06:07;33.10;99.90
10873;DHT22;34586;53.616;10.032;2023-06-10T14:08:33;33.10;99.90
10873;DHT22;34586;53.616;10.032;2023-06-10T14:10:59;33.10;99.90
10873;DHT22;34586;53.616;10.032;2023-06-10T14:13:24;32.90;99.90
10873;DHT22;34586;53.616;10.032;2023-06-10T14:15:50;32.60;99.90
10873;DHT22;34586;53.616;10.032;2023-06-10T14:18:15;32.40;99.90
10873;DHT22;34586;53.616;10.032;2023-06-10T14:20:41;32.20;99.90
10873;DHT22;34586;53.616;10.032;2023-06-10T14:23:07;31.90;99.90
10873;DHT22;34586;53.616;10.032;2023-06-10T14:25:32;31.80;99.90
10873;DHT22;34586;53.616;10.032;2023-06-10T14:27:58;31.60;99.90
10873;DHT22;34586;53.616;10.032;2023-06-10T14:30:23;31.50;99.90
10873;DHT22;34586;53.616;10.032;2023-06-10T14:32:49;31.60;99.90
10873;DHT22;34586;53.616;10.032;2023-06-10T14:35:15;31.50;99.90
10873;DHT22;34586;53.616;10.032;2023-06-10T14:37:40;31.30;99.90
10873;DHT22;34586;53.616;10.032;2023-06-10T14:40:06;31.50;99.90
10873;DHT22;34586;53.616;10.032;2023-06-10T14:42:32;31.60;99.90
10873;DHT22;34586;53.616;10.032;2023-06-10T14:44:58;32.00;99.90
10873;DHT22;34586;53.616;10.032;2023-06-10T14:50:02;32.00;99.90
10873;DHT22;34586;53.616;10.032;2023-06-10T14:52:27;32.10;99.90
10873;DHT22;34586;53.616;10.032;2023-06-10T14:54:53;32.30;99.90
10873;DHT22;34586;53.616;10.032;2023-06-10T14:57:18;32.40;99.90
10873;DHT22;34586;53.616;10.032;2023-06-10T14:59:44;32.80;99.90
10873;DHT22;34586;53.616;10.032;2023-06-10T15:02:10;32.80;99.90
10873;DHT22;34586;53.616;10.032;2023-06-10T15:04:35;32.50;99.90
10873;DHT22;34586;53.616;10.032;2023-06-10T15:07:01;32.30;99.90
10873;DHT22;34586;53.616;10.032;2023-06-10T15:09:27;31.80;99.90
10873;DHT22;34586;53.616;10.032;2023-06-10T15:11:52;31.60;99.90
10873;DHT22;34586;53.616;10.032;2023-06-10T15:14:18;31.60;99.90
10873;DHT22;34586;53.616;10.032;2023-06-10T15:16:43;31.10;99.90
10873;DHT22;34586;53.616;10.032;2023-06-10T15:19:09;30.80;99.90
10873;DHT22;34586;53.616;10.032;2023-06-10T15:21:35;30.10;99.90
10873;DHT22;34586;53.616;10.032;2023-06-10T15:24:01;29.90;99.90
10873;DHT22;34586;53.616;10.032;2023-06-10T15:26:27;29.50;99.90
10873;DHT22;34586;53.616;10.032;2023-06-10T15:28:53;29.10;99.90
10873;DHT22;34586;53.616;10.032;2023-06-10T15:31:19;29.00;99.90
10873;DHT22;34586;53.616;10.032;2023-06-10T15:33:44;28.70;99.90
10873;DHT22;34586;53.616;10.032;2023-06-10T15:36:10;28.50;99.90
10873;DHT22;34586;53.616;10.032;2023-06-10T15:38:36;28.10;99.90
10873;DHT22;34586;53.616;10.032;2023-06-10T15:41:01;27.80;99.90
10873;DHT22;34586;53.616;10.032;2023-06-10T15:43:27;27.60;99.90
10873;DHT22;34586;53.616;10.032;2023-06-10T15:45:52;27.30;99.90